Time,TemperatureF,DewpointF,PressureIn,WindDirection,WindDirectionDegrees,WindSpeedMPH,WindSpeedGustMPH,Humidity,HourlyPrecipIn,Conditions,Clouds,dailyrainin,SoftwareType,DateUTC
2013-01-11 00:01:00,35.4,30.6,30.12,NE,45,4.0,6.0,82,0.01,,,0.08,meteohub,2013-01-11 05:01:00,
2013-01-11 00:03:00,35.4,30.6,30.12,NE,45,5.0,6.0,82,0.01,,,0.08,meteohub,2013-01-11 05:03:00,
2013-01-11 00:04:00,35.4,30.6,30.11,East,90,4.0,6.0,82,0.01,,,0.08,meteohub,2013-01-11 05:04:00,
2013-01-11 00:09:00,35.4,30.6,30.10,East,90,4.0,6.0,82,0.01,,,0.00,meteohub,2013-01-11 05:09:00,
2013-01-11 00:14:00,35.4,30.6,30.11,NE,45,4.0,6.0,82,0.01,,,0.00,meteohub,2013-01-11 05:14:00,
2013-01-11 00:19:00,35.4,30.6,30.11,SW,225,3.0,6.0,82,0.01,,,0.00,meteohub,2013-01-11 05:19:00,
2013-01-11 00:25:00,35.2,30.4,30.10,NE,45,4.0,6.0,82,0.01,,,0.00,meteohub,2013-01-11 05:25:00,
2013-01-11 00:30:00,35.2,30.4,30.10,SE,135,2.0,6.0,82,0.05,,,0.04,meteohub,2013-01-11 05:30:00,
2013-01-11 00:35:00,35.2,30.4,30.09,NW,315,4.0,6.0,82,0.06,,,0.05,meteohub,2013-01-11 05:35:00,
2013-01-11 00:40:00,35.2,30.6,30.09,East,90,2.0,7.0,83,0.12,,,0.11,meteohub,2013-01-11 05:40:00,
2013-01-11 00:45:00,35.1,30.4,30.08,East,90,4.0,7.0,83,0.14,,,0.14,meteohub,2013-01-11 05:45:00,
2013-01-11 00:50:00,35.1,30.4,30.08,NE,45,5.0,7.0,83,0.14,,,0.14,meteohub,2013-01-11 05:50:00,
2013-01-11 00:55:00,35.1,30.4,30.08,SE,135,4.0,5.0,83,0.14,,,0.14,meteohub,2013-01-11 05:55:00,
2013-01-11 01:01:00,35.1,30.4,30.08,SE,135,4.0,5.0,83,0.15,,,0.15,meteohub,2013-01-11 06:01:00,
2013-01-11 01:06:00,35.1,30.4,30.07,SE,135,4.0,5.0,83,0.15,,,0.15,meteohub,2013-01-11 06:06:00,
2013-01-11 01:11:00,35.1,30.7,30.06,NE,45,5.0,5.0,84,0.15,,,0.15,meteohub,2013-01-11 06:11:00,
2013-01-11 01:16:00,35.1,30.7,30.05,NE,45,3.0,7.0,84,0.15,,,0.15,meteohub,2013-01-11 06:16:00,
2013-01-11 01:21:00,35.1,30.7,30.05,East,90,5.0,7.0,84,0.15,,,0.15,meteohub,2013-01-11 06:21:00,
2013-01-11 01:26:00,35.1,30.7,30.05,NE,45,4.0,7.0,84,0.14,,,0.15,meteohub,2013-01-11 06:26:00,
2013-01-11 01:31:00,35.2,30.9,30.05,NE,45,4.0,5.0,84,0.12,,,0.15,meteohub,2013-01-11 06:31:00,
2013-01-11 01:36:00,35.2,31.1,30.05,SE,135,4.0,5.0,85,0.08,,,0.15,meteohub,2013-01-11 06:36:00,
2013-01-11 01:42:00,35.2,31.1,30.05,NW,315,2.0,5.0,85,0.04,,,0.15,meteohub,2013-01-11 06:42:00,
2013-01-11 01:47:00,35.2,31.1,30.05,East,90,3.0,5.0,85,0.01,,,0.15,meteohub,2013-01-11 06:47:00,
2013-01-11 01:52:00,35.2,31.1,30.05,NE,45,3.0,5.0,85,0.01,,,0.15,meteohub,2013-01-11 06:52:00,
2013-01-11 01:57:00,35.2,31.1,30.05,East,90,4.0,5.0,85,0.00,,,0.15,meteohub,2013-01-11 06:57:00,
2013-01-11 02:02:00,35.2,31.1,30.05,SSE,158,2.0,5.0,85,0.00,,,0.15,meteohub,2013-01-11 07:02:00,
2013-01-11 02:07:00,35.2,31.1,30.05,SW,225,2.0,5.0,85,0.01,,,0.17,meteohub,2013-01-11 07:07:00,
2013-01-11 02:12:00,35.2,31.1,30.04,East,90,4.0,5.0,85,0.02,,,0.18,meteohub,2013-01-11 07:12:00,
2013-01-11 02:17:00,35.2,31.1,30.04,North,0,2.0,4.0,85,0.04,,,0.19,meteohub,2013-01-11 07:17:00,
2013-01-11 02:22:00,35.2,31.1,30.04,South,180,3.0,4.0,85,0.05,,,0.20,meteohub,2013-01-11 07:22:00,
2013-01-11 02:27:00,35.2,31.1,30.03,NE,45,3.0,4.0,85,0.06,,,0.21,meteohub,2013-01-11 07:27:00,
2013-01-11 02:32:00,35.2,31.5,30.03,NE,45,2.0,5.0,86,0.08,,,0.24,meteohub,2013-01-11 07:32:00,
2013-01-11 02:37:00,35.2,31.5,30.03,NE,45,4.0,5.0,86,0.08,,,0.24,meteohub,2013-01-11 07:37:00,
2013-01-11 02:42:00,35.4,31.6,30.03,NE,45,4.0,4.0,86,0.08,,,0.24,meteohub,2013-01-11 07:42:00,
2013-01-11 02:47:00,35.4,31.6,30.02,East,90,4.0,4.0,86,0.09,,,0.25,meteohub,2013-01-11 07:47:00,
2013-01-11 02:52:00,35.4,31.6,30.02,East,90,4.0,4.0,86,0.13,,,0.27,meteohub,2013-01-11 07:52:00,
2013-01-11 02:57:00,35.4,31.6,30.01,SE,135,4.0,4.0,86,0.13,,,0.28,meteohub,2013-01-11 07:57:00,
2013-01-11 03:02:00,35.4,31.6,30.02,SW,225,3.0,6.0,86,0.12,,,0.28,meteohub,2013-01-11 08:02:00,
2013-01-11 03:07:00,35.4,31.6,30.01,SW,225,3.0,6.0,86,0.12,,,0.30,meteohub,2013-01-11 08:07:00,
2013-01-11 03:12:00,35.4,31.6,30.01,ESE,113,3.0,6.0,86,0.12,,,0.31,meteohub,2013-01-11 08:12:00,
2013-01-11 03:17:00,35.4,31.6,30.00,NW,315,2.0,3.0,86,0.14,,,0.33,meteohub,2013-01-11 08:17:00,
2013-01-11 03:22:00,35.4,31.6,30.01,East,90,3.0,3.0,86,0.12,,,0.33,meteohub,2013-01-11 08:22:00,
2013-01-11 03:27:00,35.4,31.6,30.00,NW,315,2.0,4.0,86,0.13,,,0.34,meteohub,2013-01-11 08:27:00,
2013-01-11 03:32:00,35.4,32.0,29.99,SE,135,3.0,4.0,87,0.13,,,0.37,meteohub,2013-01-11 08:32:00,
2013-01-11 03:37:00,35.4,32.0,29.99,NW,315,2.0,4.0,87,0.13,,,0.37,meteohub,2013-01-11 08:37:00,
2013-01-11 03:42:00,35.4,32.0,29.99,SW,225,5.0,5.0,87,0.14,,,0.38,meteohub,2013-01-11 08:42:00,
2013-01-11 03:47:00,35.4,32.0,29.98,NW,315,3.0,5.0,87,0.12,,,0.38,meteohub,2013-01-11 08:47:00,
2013-01-11 03:52:00,35.4,32.0,29.97,NE,45,3.0,5.0,87,0.11,,,0.39,meteohub,2013-01-11 08:52:00,
2013-01-11 03:57:00,35.4,32.0,29.98,South,180,4.0,5.0,87,0.11,,,0.39,meteohub,2013-01-11 08:57:00,
2013-01-11 04:02:00,35.4,32.0,29.97,East,90,3.0,4.0,87,0.09,,,0.39,meteohub,2013-01-11 09:02:00,
2013-01-11 04:07:00,35.4,32.0,29.96,SE,135,2.0,4.0,87,0.09,,,0.39,meteohub,2013-01-11 09:07:00,
2013-01-11 04:12:00,35.6,31.8,29.96,NE,45,4.0,4.0,86,0.07,,,0.39,meteohub,2013-01-11 09:12:00,
2013-01-11 04:17:00,35.6,31.8,29.95,NE,45,2.0,4.0,86,0.06,,,0.39,meteohub,2013-01-11 09:17:00,
2013-01-11 04:22:00,35.6,31.8,29.95,ESE,113,4.0,4.0,86,0.05,,,0.39,meteohub,2013-01-11 09:22:00,
2013-01-11 04:27:00,35.6,31.8,29.94,East,90,2.0,4.0,86,0.04,,,0.39,meteohub,2013-01-11 09:27:00,
2013-01-11 04:32:00,35.6,31.8,29.94,NW,315,2.0,4.0,86,0.02,,,0.39,meteohub,2013-01-11 09:32:00,
2013-01-11 04:37:00,35.6,31.8,29.94,East,90,3.0,4.0,86,0.02,,,0.39,meteohub,2013-01-11 09:37:00,
2013-01-11 04:42:00,35.6,31.8,29.94,SW,225,3.0,4.0,86,0.01,,,0.39,meteohub,2013-01-11 09:42:00,
2013-01-11 04:47:00,35.8,32.0,29.94,NE,45,3.0,4.0,86,0.00,,,0.39,meteohub,2013-01-11 09:47:00,
2013-01-11 04:52:00,35.8,32.0,29.93,NE,45,4.0,4.0,86,0.00,,,0.39,meteohub,2013-01-11 09:52:00,
2013-01-11 04:57:00,35.8,32.0,29.92,NE,45,4.0,4.0,86,0.00,,,0.39,meteohub,2013-01-11 09:57:00,
2013-01-11 05:02:00,35.8,32.0,29.92,NE,45,3.0,4.0,86,0.00,,,0.39,meteohub,2013-01-11 10:02:00,
2013-01-11 05:07:00,35.8,32.0,29.92,NE,45,3.0,4.0,86,0.00,,,0.39,meteohub,2013-01-11 10:07:00,
2013-01-11 05:12:00,35.8,32.0,29.92,South,180,3.0,4.0,86,0.00,,,0.39,meteohub,2013-01-11 10:12:00,
2013-01-11 05:17:00,35.8,32.0,29.91,East,90,4.0,4.0,86,0.00,,,0.39,meteohub,2013-01-11 10:17:00,
2013-01-11 05:22:00,35.8,32.0,29.91,SW,225,3.0,4.0,86,0.01,,,0.40,meteohub,2013-01-11 10:22:00,
2013-01-11 05:27:00,35.8,32.0,29.91,NE,45,4.0,4.0,86,0.01,,,0.40,meteohub,2013-01-11 10:27:00,
2013-01-11 05:32:00,35.8,32.0,29.90,SW,225,3.0,4.0,86,0.01,,,0.40,meteohub,2013-01-11 10:32:00,
2013-01-11 05:37:00,35.8,32.0,29.90,East,90,3.0,4.0,86,0.01,,,0.40,meteohub,2013-01-11 10:37:00,
2013-01-11 05:42:00,35.8,32.0,29.90,East,90,6.0,6.0,86,0.01,,,0.40,meteohub,2013-01-11 10:42:00,
2013-01-11 05:47:00,35.8,32.0,29.90,NE,45,5.0,6.0,86,0.01,,,0.40,meteohub,2013-01-11 10:47:00,
2013-01-11 05:52:00,36.0,32.2,29.89,South,180,5.0,6.0,86,0.01,,,0.40,meteohub,2013-01-11 10:52:00,
2013-01-11 05:57:00,36.0,32.2,29.89,East,90,7.0,7.0,86,0.01,,,0.40,meteohub,2013-01-11 10:57:00,
2013-01-11 06:02:00,36.0,32.2,29.89,NE,45,2.0,7.0,86,0.01,,,0.40,meteohub,2013-01-11 11:02:00,
2013-01-11 06:07:00,36.1,32.4,29.88,East,90,3.0,7.0,86,0.01,,,0.40,meteohub,2013-01-11 11:07:00,
2013-01-11 06:12:00,36.1,32.4,29.88,South,180,4.0,7.0,86,0.01,,,0.40,meteohub,2013-01-11 11:12:00,
2013-01-11 06:17:00,36.1,32.4,29.87,SE,135,4.0,5.0,86,0.01,,,0.40,meteohub,2013-01-11 11:17:00,
2013-01-11 06:22:00,36.0,32.2,29.88,SE,135,2.0,5.0,86,0.00,,,0.40,meteohub,2013-01-11 11:22:00,
2013-01-11 06:27:00,36.1,32.4,29.87,NE,45,2.0,5.0,86,0.00,,,0.40,meteohub,2013-01-11 11:27:00,
2013-01-11 06:32:00,36.1,32.4,29.87,North,0,2.0,6.0,86,0.01,,,0.41,meteohub,2013-01-11 11:32:00,
2013-01-11 06:37:00,36.1,32.4,29.87,SE,135,2.0,6.0,86,0.02,,,0.43,meteohub,2013-01-11 11:37:00,
2013-01-11 06:42:00,36.1,32.7,29.87,SE,135,2.0,6.0,87,0.02,,,0.43,meteohub,2013-01-11 11:42:00,
2013-01-11 06:47:00,36.1,32.7,29.87,East,90,3.0,4.0,87,0.02,,,0.43,meteohub,2013-01-11 11:47:00,
2013-01-11 06:52:00,36.1,32.7,29.87,East,90,4.0,4.0,87,0.02,,,0.43,meteohub,2013-01-11 11:52:00,
2013-01-11 06:57:00,36.3,32.9,29.87,NE,45,2.0,4.0,87,0.02,,,0.43,meteohub,2013-01-11 11:57:00,
2013-01-11 07:02:00,36.3,32.9,29.87,NE,45,3.0,4.0,87,0.02,,,0.43,meteohub,2013-01-11 12:02:00,
2013-01-11 07:07:00,36.3,32.9,29.87,NE,45,2.0,4.0,87,0.02,,,0.43,meteohub,2013-01-11 12:07:00,
2013-01-11 07:13:00,36.3,32.9,29.87,East,90,3.0,3.0,87,0.04,,,0.44,meteohub,2013-01-11 12:13:00,
2013-01-11 07:18:00,36.3,32.9,29.87,SW,225,2.0,3.0,87,0.04,,,0.44,meteohub,2013-01-11 12:18:00,
2013-01-11 07:23:00,36.3,32.9,29.87,NE,45,2.0,4.0,87,0.05,,,0.45,meteohub,2013-01-11 12:23:00,
2013-01-11 07:28:00,36.5,33.1,29.86,East,90,4.0,4.0,87,0.05,,,0.45,meteohub,2013-01-11 12:28:00,
2013-01-11 07:33:00,36.5,33.1,29.86,East,90,3.0,4.0,87,0.04,,,0.45,meteohub,2013-01-11 12:33:00,
2013-01-11 07:38:00,36.7,33.3,29.86,South,180,3.0,5.0,87,0.02,,,0.45,meteohub,2013-01-11 12:38:00,
2013-01-11 07:43:00,36.7,33.3,29.85,NE,45,4.0,5.0,87,0.02,,,0.45,meteohub,2013-01-11 12:43:00,
2013-01-11 07:48:00,36.9,33.4,29.86,East,90,4.0,5.0,87,0.02,,,0.45,meteohub,2013-01-11 12:48:00,
2013-01-11 07:54:00,37.0,33.6,29.85,East,90,4.0,6.0,87,0.05,,,0.47,meteohub,2013-01-11 12:54:00,
2013-01-11 07:59:00,37.2,34.0,29.84,SE,135,4.0,6.0,88,0.05,,,0.47,meteohub,2013-01-11 12:59:00,
2013-01-11 08:04:00,37.4,35.2,29.83,NE,45,2.0,6.0,92,0.05,,,0.47,meteohub,2013-01-11 13:04:00,
2013-01-11 08:09:00,37.8,35.6,29.82,NE,45,2.0,5.0,92,0.05,,,0.47,meteohub,2013-01-11 13:09:00,
2013-01-11 08:14:00,37.8,35.6,29.81,NE,45,2.0,5.0,92,0.04,,,0.47,meteohub,2013-01-11 13:14:00,
2013-01-11 08:19:00,37.9,35.8,29.81,NE,45,2.0,4.0,92,0.02,,,0.47,meteohub,2013-01-11 13:19:00,
2013-01-11 08:24:00,38.1,36.0,29.81,NE,45,2.0,4.0,92,0.02,,,0.47,meteohub,2013-01-11 13:24:00,
2013-01-11 08:29:00,38.5,36.7,29.81,SW,225,4.0,4.0,93,0.02,,,0.47,meteohub,2013-01-11 13:29:00,
2013-01-11 08:35:00,38.7,36.9,29.81,NW,315,1.0,4.0,93,0.02,,,0.47,meteohub,2013-01-11 13:35:00,
2013-01-11 08:40:00,39.2,37.0,29.81,East,90,5.0,5.0,92,0.02,,,0.47,meteohub,2013-01-11 13:40:00,
2013-01-11 08:45:00,39.9,38.1,29.81,South,180,4.0,6.0,93,0.02,,,0.48,meteohub,2013-01-11 13:45:00,
2013-01-11 08:50:00,40.3,38.5,29.79,ESE,113,2.0,10.0,93,0.01,,,0.48,meteohub,2013-01-11 13:50:00,
2013-01-11 08:55:00,40.5,38.7,29.78,WSW,248,3.0,10.0,93,0.01,,,0.48,meteohub,2013-01-11 13:55:00,
2013-01-11 09:00:00,40.8,39.2,29.77,NE,45,3.0,6.0,94,0.01,,,0.48,meteohub,2013-01-11 14:00:00,
2013-01-11 09:05:00,40.8,39.2,29.78,NE,45,3.0,6.0,94,0.01,,,0.48,meteohub,2013-01-11 14:05:00,
2013-01-11 09:10:00,41.2,39.4,29.77,North,0,2.0,6.0,93,0.01,,,0.48,meteohub,2013-01-11 14:10:00,
2013-01-11 09:15:00,41.4,39.6,29.75,South,180,2.0,4.0,93,0.01,,,0.48,meteohub,2013-01-11 14:15:00,
2013-01-11 09:21:00,41.5,39.7,29.75,NW,315,2.0,4.0,93,0.01,,,0.48,meteohub,2013-01-11 14:21:00,
2013-01-11 09:26:00,41.7,39.9,29.76,NE,45,4.0,4.0,93,0.01,,,0.48,meteohub,2013-01-11 14:26:00,
2013-01-11 09:31:00,41.9,40.1,29.75,South,180,3.0,4.0,93,0.01,,,0.48,meteohub,2013-01-11 14:31:00,
2013-01-11 09:36:00,42.1,40.3,29.76,SW,225,3.0,4.0,93,0.01,,,0.48,meteohub,2013-01-11 14:36:00,
2013-01-11 09:41:00,42.4,40.8,29.77,South,180,3.0,4.0,94,0.01,,,0.48,meteohub,2013-01-11 14:41:00,
2013-01-11 09:46:00,42.6,41.0,29.78,South,180,2.0,4.0,94,0.00,,,0.48,meteohub,2013-01-11 14:46:00,
2013-01-11 09:51:00,42.8,41.0,29.79,SW,225,2.0,4.0,93,0.00,,,0.48,meteohub,2013-01-11 14:51:00,
2013-01-11 09:56:00,43.0,41.2,29.78,South,180,2.0,4.0,93,0.00,,,0.48,meteohub,2013-01-11 14:56:00,
2013-01-11 10:02:00,43.5,41.7,29.78,South,180,4.0,4.0,93,0.00,,,0.48,meteohub,2013-01-11 15:02:00,
2013-01-11 10:07:00,44.1,42.4,29.78,SSE,158,5.0,8.0,94,0.00,,,0.48,meteohub,2013-01-11 15:07:00,
2013-01-11 10:12:00,44.4,42.8,29.78,SE,135,4.0,8.0,94,0.00,,,0.48,meteohub,2013-01-11 15:12:00,
2013-01-11 10:17:00,44.6,42.6,29.77,South,180,3.0,7.0,93,0.00,,,0.48,meteohub,2013-01-11 15:17:00,
2013-01-11 10:22:00,44.4,42.8,29.77,South,180,4.0,7.0,94,0.00,,,0.48,meteohub,2013-01-11 15:22:00,
2013-01-11 10:27:00,44.4,42.8,29.77,South,180,4.0,4.0,94,0.00,,,0.48,meteohub,2013-01-11 15:27:00,
2013-01-11 10:32:00,44.4,42.8,29.78,South,180,3.0,4.0,94,0.00,,,0.48,meteohub,2013-01-11 15:32:00,
2013-01-11 10:37:00,44.4,42.8,29.78,SW,225,2.0,4.0,94,0.00,,,0.48,meteohub,2013-01-11 15:37:00,
2013-01-11 10:42:00,44.6,42.6,29.78,SE,135,2.0,4.0,93,0.00,,,0.48,meteohub,2013-01-11 15:42:00,
2013-01-11 10:48:00,44.4,42.8,29.78,South,180,2.0,4.0,94,0.00,,,0.48,meteohub,2013-01-11 15:48:00,
2013-01-11 10:53:00,44.4,42.8,29.78,South,180,3.0,4.0,94,0.00,,,0.48,meteohub,2013-01-11 15:53:00,
2013-01-11 10:58:00,44.8,42.8,29.78,SW,225,4.0,4.0,93,0.00,,,0.48,meteohub,2013-01-11 15:58:00,
2013-01-11 11:03:00,44.8,42.8,29.78,South,180,2.0,4.0,93,0.00,,,0.48,meteohub,2013-01-11 16:03:00,
2013-01-11 11:08:00,45.0,43.0,29.77,SE,135,2.0,4.0,93,0.00,,,0.48,meteohub,2013-01-11 16:08:00,
2013-01-11 11:13:00,45.0,43.0,29.78,SW,225,2.0,4.0,93,0.00,,,0.48,meteohub,2013-01-11 16:13:00,
2013-01-11 11:18:00,45.1,43.2,29.78,SW,225,4.0,4.0,93,0.00,,,0.48,meteohub,2013-01-11 16:18:00,
2013-01-11 11:23:00,45.1,43.2,29.78,SW,225,4.0,4.0,93,0.00,,,0.48,meteohub,2013-01-11 16:23:00,
2013-01-11 11:28:00,45.3,43.7,29.78,South,180,4.0,4.0,94,0.00,,,0.48,meteohub,2013-01-11 16:28:00,
2013-01-11 11:34:00,45.5,43.9,29.77,SW,225,4.0,4.0,94,0.00,,,0.48,meteohub,2013-01-11 16:34:00,
2013-01-11 11:39:00,45.7,44.1,29.77,SW,225,3.0,4.0,94,0.00,,,0.48,meteohub,2013-01-11 16:39:00,
2013-01-11 11:44:00,45.9,44.2,29.76,South,180,2.0,4.0,94,0.00,,,0.48,meteohub,2013-01-11 16:44:00,
2013-01-11 11:49:00,45.7,44.1,29.76,SW,225,2.0,4.0,94,0.00,,,0.48,meteohub,2013-01-11 16:49:00,
2013-01-11 11:54:00,46.0,44.4,29.76,South,180,4.0,4.0,94,0.00,,,0.48,meteohub,2013-01-11 16:54:00,
2013-01-11 11:59:00,46.2,44.6,29.75,South,180,3.0,4.0,94,0.00,,,0.48,meteohub,2013-01-11 16:59:00,
2013-01-11 12:04:00,46.2,44.6,29.75,South,180,2.0,6.0,94,0.00,,,0.48,meteohub,2013-01-11 17:04:00,
2013-01-11 12:09:00,46.4,44.8,29.75,SW,225,2.0,6.0,94,0.00,,,0.48,meteohub,2013-01-11 17:09:00,
2013-01-11 12:14:00,46.6,45.0,29.75,SW,225,3.0,6.0,94,0.00,,,0.48,meteohub,2013-01-11 17:14:00,
2013-01-11 12:20:00,46.9,45.3,29.75,South,180,2.0,4.0,94,0.00,,,0.48,meteohub,2013-01-11 17:20:00,
2013-01-11 12:25:00,47.1,45.7,29.75,South,180,3.0,4.0,95,0.00,,,0.48,meteohub,2013-01-11 17:25:00,
2013-01-11 12:30:00,47.3,45.9,29.74,South,180,2.0,4.0,95,0.00,,,0.48,meteohub,2013-01-11 17:30:00,
2013-01-11 12:35:00,47.3,45.9,29.74,South,180,4.0,6.0,95,0.00,,,0.48,meteohub,2013-01-11 17:35:00,
2013-01-11 12:40:00,47.5,46.0,29.74,South,180,5.0,6.0,95,0.00,,,0.48,meteohub,2013-01-11 17:40:00,
2013-01-11 12:45:00,47.7,46.2,29.74,SW,225,2.0,5.0,95,0.00,,,0.48,meteohub,2013-01-11 17:45:00,
2013-01-11 12:50:00,47.8,46.4,29.74,SW,225,2.0,5.0,95,0.00,,,0.48,meteohub,2013-01-11 17:50:00,
2013-01-11 12:55:00,47.7,46.2,29.73,NE,45,0.0,5.0,95,0.00,,,0.48,meteohub,2013-01-11 17:55:00,
2013-01-11 13:01:00,47.8,46.4,29.72,SW,225,0.0,2.0,95,0.00,,,0.48,meteohub,2013-01-11 18:01:00,
2013-01-11 13:06:00,48.4,46.8,29.72,SW,225,2.0,2.0,94,0.00,,,0.48,meteohub,2013-01-11 18:06:00,
2013-01-11 13:11:00,48.9,47.3,29.72,South,180,2.0,2.0,94,0.00,,,0.48,meteohub,2013-01-11 18:11:00,
2013-01-11 13:16:00,49.5,47.8,29.72,South,180,0.0,3.0,94,0.00,,,0.48,meteohub,2013-01-11 18:16:00,
2013-01-11 13:21:00,49.6,48.2,29.72,South,180,2.0,3.0,95,0.00,,,0.48,meteohub,2013-01-11 18:21:00,
2013-01-11 13:26:00,50.0,48.4,29.72,SW,225,3.0,3.0,94,0.00,,,0.48,meteohub,2013-01-11 18:26:00,
2013-01-11 13:31:00,50.2,48.6,29.72,South,180,1.0,3.0,94,0.00,,,0.48,meteohub,2013-01-11 18:31:00,
2013-01-11 13:36:00,50.2,48.6,29.73,South,180,2.0,3.0,94,0.00,,,0.48,meteohub,2013-01-11 18:36:00,
2013-01-11 13:41:00,50.4,48.7,29.73,South,180,2.0,3.0,94,0.00,,,0.48,meteohub,2013-01-11 18:41:00,
2013-01-11 13:47:00,50.4,48.7,29.72,South,180,2.0,3.0,94,0.00,,,0.48,meteohub,2013-01-11 18:47:00,
2013-01-11 13:52:00,50.4,48.7,29.73,SSE,158,3.0,4.0,94,0.00,,,0.48,meteohub,2013-01-11 18:52:00,
2013-01-11 13:57:00,50.5,48.9,29.73,South,180,3.0,4.0,94,0.00,,,0.48,meteohub,2013-01-11 18:57:00,
2013-01-11 14:02:00,51.4,49.8,29.73,SW,225,2.0,4.0,94,0.00,,,0.48,meteohub,2013-01-11 19:02:00,
2013-01-11 14:07:00,52.2,50.5,29.73,South,180,2.0,3.0,94,0.00,,,0.48,meteohub,2013-01-11 19:07:00,
2013-01-11 14:12:00,52.3,50.7,29.73,SW,225,3.0,4.0,94,0.00,,,0.48,meteohub,2013-01-11 19:12:00,
2013-01-11 14:17:00,52.7,51.1,29.73,SE,135,3.0,4.0,94,0.00,,,0.48,meteohub,2013-01-11 19:17:00,
2013-01-11 14:22:00,52.7,51.1,29.74,SW,225,3.0,7.0,94,0.00,,,0.48,meteohub,2013-01-11 19:22:00,
2013-01-11 14:27:00,52.7,51.1,29.74,SW,225,6.0,7.0,94,0.00,,,0.48,meteohub,2013-01-11 19:27:00,
2013-01-11 14:32:00,52.5,50.5,29.74,SW,225,4.0,7.0,93,0.00,,,0.48,meteohub,2013-01-11 19:32:00,
2013-01-11 14:37:00,52.3,50.4,29.74,West,270,2.0,6.0,93,0.00,,,0.48,meteohub,2013-01-11 19:37:00,
2013-01-11 14:42:00,52.3,50.4,29.74,South,180,2.0,6.0,93,0.00,,,0.48,meteohub,2013-01-11 19:42:00,
2013-01-11 14:47:00,52.3,50.0,29.74,West,270,3.0,6.0,92,0.00,,,0.48,meteohub,2013-01-11 19:47:00,
2013-01-11 14:52:00,52.7,50.4,29.74,South,180,3.0,4.0,92,0.00,,,0.48,meteohub,2013-01-11 19:52:00,
2013-01-11 14:57:00,53.4,51.1,29.74,SW,225,3.0,4.0,92,0.00,,,0.48,meteohub,2013-01-11 19:57:00,
2013-01-11 15:02:00,54.0,51.4,29.74,SW,225,4.0,4.0,91,0.00,,,0.48,meteohub,2013-01-11 20:02:00,
2013-01-11 15:07:00,54.1,51.3,29.74,South,180,2.0,4.0,90,0.00,,,0.48,meteohub,2013-01-11 20:07:00,
2013-01-11 15:12:00,54.1,50.7,29.75,SW,225,5.0,6.0,88,0.00,,,0.48,meteohub,2013-01-11 20:12:00,
2013-01-11 15:17:00,54.1,50.4,29.75,West,270,4.0,6.0,87,0.00,,,0.48,meteohub,2013-01-11 20:17:00,
2013-01-11 15:22:00,54.3,50.5,29.75,South,180,0.0,6.0,87,0.00,,,0.48,meteohub,2013-01-11 20:22:00,
2013-01-11 15:27:00,54.7,50.5,29.75,West,270,3.0,5.0,86,0.00,,,0.48,meteohub,2013-01-11 20:27:00,
2013-01-11 15:32:00,55.4,51.3,29.75,North,0,6.0,6.0,86,0.00,,,0.48,meteohub,2013-01-11 20:32:00,
2013-01-11 15:37:00,55.9,51.4,29.75,SW,225,1.0,6.0,85,0.00,,,0.48,meteohub,2013-01-11 20:37:00,
2013-01-11 15:42:00,56.1,51.1,29.76,South,180,3.0,6.0,83,0.00,,,0.48,meteohub,2013-01-11 20:42:00,
2013-01-11 15:48:00,56.1,50.4,29.76,SW,225,3.0,6.0,81,0.00,,,0.48,meteohub,2013-01-11 20:48:00,
2013-01-11 15:53:00,56.3,49.5,29.76,SW,225,3.0,4.0,78,0.00,,,0.48,meteohub,2013-01-11 20:53:00,
2013-01-11 15:58:00,55.9,48.6,29.77,SW,225,4.0,4.0,76,0.00,,,0.48,meteohub,2013-01-11 20:58:00,
2013-01-11 16:03:00,55.4,48.0,29.77,South,180,5.0,5.0,76,0.00,,,0.48,meteohub,2013-01-11 21:03:00,
2013-01-11 16:08:00,55.4,48.0,29.76,West,270,4.0,5.0,76,0.00,,,0.48,meteohub,2013-01-11 21:08:00,
2013-01-11 16:13:00,55.4,48.0,29.76,SW,225,2.0,8.0,76,0.00,,,0.48,meteohub,2013-01-11 21:13:00,
2013-01-11 16:18:00,55.2,47.8,29.77,West,270,3.0,8.0,76,0.00,,,0.48,meteohub,2013-01-11 21:18:00,
2013-01-11 16:23:00,55.0,47.3,29.78,West,270,4.0,8.0,75,0.00,,,0.48,meteohub,2013-01-11 21:23:00,
2013-01-11 16:29:00,54.7,46.9,29.78,West,270,4.0,5.0,75,0.00,,,0.48,meteohub,2013-01-11 21:29:00,
2013-01-11 16:34:00,54.5,46.8,29.79,SW,225,2.0,5.0,75,0.00,,,0.48,meteohub,2013-01-11 21:34:00,
2013-01-11 16:39:00,54.3,46.6,29.78,SW,225,2.0,5.0,75,0.00,,,0.48,meteohub,2013-01-11 21:39:00,
2013-01-11 16:44:00,54.1,46.4,29.78,SW,225,0.0,5.0,75,0.00,,,0.48,meteohub,2013-01-11 21:44:00,
2013-01-11 16:49:00,53.8,46.4,29.79,SW,225,0.0,6.0,76,0.00,,,0.48,meteohub,2013-01-11 21:49:00,
2013-01-11 16:54:00,53.6,46.2,29.80,WNW,293,4.0,6.0,76,0.00,,,0.48,meteohub,2013-01-11 21:54:00,
2013-01-11 16:59:00,53.6,45.9,29.80,SW,225,3.0,7.0,75,0.00,,,0.48,meteohub,2013-01-11 21:59:00,
2013-01-11 17:05:00,53.2,45.9,29.80,SW,225,7.0,7.0,76,0.00,,,0.48,meteohub,2013-01-11 22:05:00,
2013-01-11 17:10:00,52.9,45.5,29.79,West,270,5.0,7.0,76,0.00,,,0.48,meteohub,2013-01-11 22:10:00,
2013-01-11 17:15:00,52.5,44.8,29.80,SW,225,2.0,7.0,75,0.00,,,0.48,meteohub,2013-01-11 22:15:00,
2013-01-11 17:20:00,52.2,44.4,29.80,South,180,6.0,6.0,75,0.00,,,0.48,meteohub,2013-01-11 22:20:00,
2013-01-11 17:25:00,52.0,44.2,29.81,SW,225,3.0,6.0,75,0.00,,,0.48,meteohub,2013-01-11 22:25:00,
2013-01-11 17:30:00,51.8,44.1,29.81,SW,225,4.0,8.0,75,0.00,,,0.48,meteohub,2013-01-11 22:30:00,
2013-01-11 17:36:00,51.6,44.2,29.81,South,180,4.0,8.0,76,0.00,,,0.48,meteohub,2013-01-11 22:36:00,
2013-01-11 17:41:00,51.3,43.9,29.80,SW,225,2.0,8.0,76,0.00,,,0.48,meteohub,2013-01-11 22:41:00,
2013-01-11 17:46:00,50.5,43.3,29.81,SW,225,2.0,6.0,76,0.00,,,0.48,meteohub,2013-01-11 22:46:00,
2013-01-11 17:51:00,50.2,43.3,29.81,North,0,0.0,6.0,77,0.00,,,0.48,meteohub,2013-01-11 22:51:00,
2013-01-11 17:56:00,49.3,42.8,29.81,South,180,2.0,3.0,78,0.00,,,0.48,meteohub,2013-01-11 22:56:00,
2013-01-11 18:01:00,48.6,42.1,29.81,NE,45,0.0,3.0,78,0.00,,,0.48,meteohub,2013-01-11 23:01:00,
2013-01-11 18:06:00,48.0,42.1,29.82,East,90,0.0,3.0,80,0.00,,,0.48,meteohub,2013-01-11 23:06:00,
2013-01-11 18:11:00,47.3,41.4,29.82,South,180,0.0,3.0,80,0.00,,,0.48,meteohub,2013-01-11 23:11:00,
2013-01-11 18:17:00,46.9,41.7,29.82,SW,225,0.0,0.0,82,0.00,,,0.48,meteohub,2013-01-11 23:17:00,
2013-01-11 18:22:00,47.1,42.3,29.82,SW,225,2.0,2.0,83,0.00,,,0.48,meteohub,2013-01-11 23:22:00,
2013-01-11 18:27:00,46.9,42.1,29.82,SW,225,0.0,2.0,83,0.00,,,0.48,meteohub,2013-01-11 23:27:00,
2013-01-11 18:32:00,46.6,42.1,29.82,North,0,0.0,2.0,84,0.00,,,0.48,meteohub,2013-01-11 23:32:00,
2013-01-11 18:37:00,46.0,41.2,29.83,NW,315,0.0,2.0,83,0.00,,,0.48,meteohub,2013-01-11 23:37:00,
2013-01-11 18:42:00,45.5,40.6,29.83,NE,45,0.0,0.0,83,0.00,,,0.48,meteohub,2013-01-11 23:42:00,
2013-01-11 18:47:00,45.1,40.3,29.83,South,180,0.0,0.0,83,0.00,,,0.48,meteohub,2013-01-11 23:47:00,
2013-01-11 18:52:00,44.8,40.3,29.83,SW,225,0.0,0.0,84,0.00,,,0.48,meteohub,2013-01-11 23:52:00,
2013-01-11 18:57:00,44.1,39.6,29.84,NW,315,0.0,0.0,84,0.00,,,0.48,meteohub,2013-01-11 23:57:00,
2013-01-11 19:02:00,43.7,39.6,29.82,East,90,0.0,0.0,85,0.00,,,0.48,meteohub,2013-01-12 00:02:00,
2013-01-11 19:07:00,43.7,39.6,29.81,South,180,0.0,0.0,85,0.00,,,0.48,meteohub,2013-01-12 00:07:00,
2013-01-11 19:12:00,43.7,39.7,29.81,NE,45,0.0,0.0,86,0.00,,,0.48,meteohub,2013-01-12 00:12:00,
2013-01-11 19:17:00,43.0,39.0,29.81,NE,45,0.0,0.0,86,0.00,,,0.48,meteohub,2013-01-12 00:17:00,
2013-01-11 19:22:00,42.4,38.8,29.83,NW,315,0.0,0.0,87,0.00,,,0.48,meteohub,2013-01-12 00:22:00,
2013-01-11 19:27:00,42.1,38.5,29.83,NW,315,0.0,0.0,87,0.00,,,0.48,meteohub,2013-01-12 00:27:00,
2013-01-11 19:32:00,41.9,38.3,29.83,NW,315,0.0,0.0,87,0.00,,,0.48,meteohub,2013-01-12 00:32:00,
2013-01-11 19:37:00,41.7,38.1,29.83,SE,135,0.0,0.0,87,0.00,,,0.48,meteohub,2013-01-12 00:37:00,
2013-01-11 19:42:00,41.7,38.1,29.82,South,180,0.0,0.0,87,0.00,,,0.48,meteohub,2013-01-12 00:42:00,
2013-01-11 19:47:00,41.7,38.5,29.82,East,90,0.0,0.0,88,0.00,,,0.48,meteohub,2013-01-12 00:47:00,
2013-01-11 19:52:00,41.7,38.5,29.82,East,90,0.0,0.0,88,0.00,,,0.48,meteohub,2013-01-12 00:52:00,
2013-01-11 19:57:00,41.4,38.1,29.83,West,270,0.0,0.0,88,0.00,,,0.48,meteohub,2013-01-12 00:57:00,
2013-01-11 20:02:00,41.2,37.9,29.83,NE,45,0.0,0.0,88,0.00,,,0.48,meteohub,2013-01-12 01:02:00,
2013-01-11 20:07:00,41.0,37.8,29.82,NE,45,0.0,0.0,88,0.00,,,0.48,meteohub,2013-01-12 01:07:00,
2013-01-11 20:12:00,40.8,37.8,29.83,NE,45,0.0,0.0,89,0.00,,,0.48,meteohub,2013-01-12 01:12:00,
2013-01-11 20:17:00,40.3,37.2,29.83,SW,225,0.0,0.0,89,0.00,,,0.48,meteohub,2013-01-12 01:17:00,
2013-01-11 20:23:00,40.1,37.0,29.83,NE,45,0.0,0.0,89,0.00,,,0.48,meteohub,2013-01-12 01:23:00,
2013-01-11 20:28:00,40.1,37.0,29.83,NE,45,0.0,0.0,89,0.00,,,0.48,meteohub,2013-01-12 01:28:00,
2013-01-11 20:33:00,40.3,37.6,29.82,West,270,0.0,0.0,90,0.00,,,0.48,meteohub,2013-01-12 01:33:00,
2013-01-11 20:38:00,40.6,37.9,29.82,South,180,0.0,0.0,90,0.00,,,0.48,meteohub,2013-01-12 01:38:00,
2013-01-11 20:43:00,40.6,37.9,29.82,SW,225,0.0,0.0,90,0.00,,,0.48,meteohub,2013-01-12 01:43:00,
2013-01-11 20:48:00,40.3,37.6,29.81,SE,135,0.0,0.0,90,0.00,,,0.48,meteohub,2013-01-12 01:48:00,
2013-01-11 20:54:00,41.0,38.3,29.82,East,90,0.0,0.0,90,0.00,,,0.48,meteohub,2013-01-12 01:54:00,
2013-01-11 20:59:00,41.0,38.3,29.82,North,0,0.0,0.0,90,0.00,,,0.48,meteohub,2013-01-12 01:59:00,
2013-01-11 21:04:00,41.0,38.3,29.81,SE,135,0.0,0.0,90,0.00,,,0.48,meteohub,2013-01-12 02:04:00,
2013-01-11 21:09:00,41.7,39.2,29.81,South,180,0.0,0.0,91,0.00,,,0.48,meteohub,2013-01-12 02:09:00,
2013-01-11 21:14:00,41.9,39.4,29.83,North,0,0.0,0.0,91,0.00,,,0.48,meteohub,2013-01-12 02:14:00,
2013-01-11 21:19:00,41.5,39.2,29.83,North,0,0.0,0.0,91,0.00,,,0.48,meteohub,2013-01-12 02:19:00,
2013-01-11 21:24:00,41.5,39.2,29.83,SW,225,0.0,0.0,91,0.00,,,0.48,meteohub,2013-01-12 02:24:00,
2013-01-11 21:30:00,41.7,39.2,29.83,South,180,0.0,0.0,91,0.00,,,0.48,meteohub,2013-01-12 02:30:00,
2013-01-11 21:35:00,41.9,39.7,29.82,South,180,0.0,0.0,92,0.00,,,0.48,meteohub,2013-01-12 02:35:00,
2013-01-11 21:40:00,41.9,39.7,29.82,East,90,0.0,0.0,92,0.00,,,0.48,meteohub,2013-01-12 02:40:00,
2013-01-11 21:45:00,42.3,40.1,29.83,NW,315,0.0,0.0,92,0.00,,,0.48,meteohub,2013-01-12 02:45:00,
2013-01-11 21:50:00,41.9,39.7,29.82,East,90,0.0,0.0,92,0.00,,,0.48,meteohub,2013-01-12 02:50:00,
2013-01-11 21:55:00,42.3,40.5,29.82,South,180,1.0,3.0,93,0.00,,,0.48,meteohub,2013-01-12 02:55:00,
2013-01-11 22:01:00,42.8,40.6,29.83,South,180,0.0,3.0,92,0.00,,,0.48,meteohub,2013-01-12 03:01:00,
2013-01-11 22:06:00,43.3,41.2,29.82,SW,225,1.0,3.0,92,0.00,,,0.48,meteohub,2013-01-12 03:06:00,
2013-01-11 22:11:00,43.9,41.7,29.83,SW,225,0.0,2.0,92,0.00,,,0.48,meteohub,2013-01-12 03:11:00,
2013-01-11 22:16:00,44.4,42.4,29.83,West,270,2.0,2.0,93,0.00,,,0.48,meteohub,2013-01-12 03:16:00,
2013-01-11 22:21:00,45.1,43.0,29.83,South,180,2.0,4.0,92,0.00,,,0.48,meteohub,2013-01-12 03:21:00,
2013-01-11 22:26:00,45.3,43.2,29.82,NE,45,0.0,4.0,92,0.00,,,0.48,meteohub,2013-01-12 03:26:00,
2013-01-11 22:32:00,45.3,43.2,29.82,South,180,0.0,4.0,92,0.00,,,0.48,meteohub,2013-01-12 03:32:00,
2013-01-11 22:37:00,45.3,43.2,29.82,South,180,0.0,3.0,92,0.00,,,0.48,meteohub,2013-01-12 03:37:00,
2013-01-11 22:42:00,45.3,43.2,29.83,South,180,0.0,3.0,92,0.00,,,0.48,meteohub,2013-01-12 03:42:00,
2013-01-11 22:47:00,45.3,43.2,29.82,South,180,0.0,2.0,92,0.00,,,0.48,meteohub,2013-01-12 03:47:00,
2013-01-11 22:52:00,45.1,43.0,29.82,South,180,0.0,2.0,92,0.00,,,0.48,meteohub,2013-01-12 03:52:00,
2013-01-11 22:57:00,45.0,42.8,29.82,SE,135,0.0,2.0,92,0.00,,,0.48,meteohub,2013-01-12 03:57:00,
2013-01-11 23:02:00,45.0,42.8,29.81,South,180,0.0,2.0,92,0.00,,,0.48,meteohub,2013-01-12 04:02:00,
2013-01-11 23:07:00,45.0,42.8,29.81,South,180,1.0,2.0,92,0.00,,,0.48,meteohub,2013-01-12 04:07:00,
2013-01-11 23:12:00,45.1,43.0,29.81,South,180,0.0,2.0,92,0.00,,,0.48,meteohub,2013-01-12 04:12:00,
2013-01-11 23:17:00,45.0,42.8,29.81,SW,225,0.0,2.0,92,0.00,,,0.48,meteohub,2013-01-12 04:17:00,
2013-01-11 23:22:00,44.6,42.4,29.81,NE,45,0.0,2.0,92,0.00,,,0.48,meteohub,2013-01-12 04:22:00,
2013-01-11 23:27:00,44.6,42.4,29.80,South,180,0.0,1.0,92,0.00,,,0.48,meteohub,2013-01-12 04:27:00,
2013-01-11 23:32:00,44.4,42.4,29.81,South,180,0.0,0.0,93,0.00,,,0.48,meteohub,2013-01-12 04:32:00,
2013-01-11 23:37:00,44.6,42.4,29.81,SW,225,0.0,0.0,92,0.00,,,0.48,meteohub,2013-01-12 04:37:00,
2013-01-11 23:43:00,44.6,42.4,29.81,SE,135,0.0,0.0,92,0.00,,,0.48,meteohub,2013-01-12 04:43:00,
2013-01-11 23:48:00,44.8,42.6,29.81,South,180,2.0,2.0,92,0.00,,,0.48,meteohub,2013-01-12 04:48:00,
2013-01-11 23:53:00,44.6,42.4,29.81,South,180,1.0,2.0,92,0.00,,,0.48,meteohub,2013-01-12 04:53:00,
2013-01-11 23:58:00,44.6,42.4,29.80,South,180,3.0,3.0,92,0.00,,,0.48,meteohub,2013-01-12 04:58:00,